Time;durP1;ratioP1;P1;durP2;ratioP2;P2;SDS_P1;SDS_P2;PMS_P1;PMS_P2;Temp;Humidity;BMP_temperature;BMP_pressure;BME280_temperature;BME280_humidity;BME280_pressure;Samples;Min_cycle;Max_cycle;Signal;HPM_P1;HPM_P2
2022/07/12 00:02:19;;;;;;;2.30;1.80;;;18.10;99.90;;;;;;5092205;28;20220;-61
2022/07/12 00:04:46;;;;;;;2.72;1.77;;;18.10;99.90;;;;;;5092831;28;20637;-61
2022/07/12 00:07:13;;;;;;;3.38;2.00;;;18.20;99.90;;;;;;5092799;28;20204;-63
2022/07/12 00:09:41;;;;;;;2.03;1.65;;;18.20;99.90;;;;;;5093031;28;20200;-62
2022/07/12 00:12:08;;;;;;;2.95;1.63;;;18.20;99.90;;;;;;5092693;28;20253;-62
2022/07/12 00:14:34;;;;;;;3.83;1.80;;;18.30;99.90;;;;;;5095477;28;20224;-61
2022/07/12 00:17:02;;;;;;;1.60;1.50;;;18.40;99.90;;;;;;5096045;28;20252;-61
2022/07/12 00:19:29;;;;;;;2.50;1.55;;;18.40;99.90;;;;;;5095844;28;20253;-61
2022/07/12 00:21:55;;;;;;;2.13;1.67;;;18.50;99.90;;;;;;5095481;28;20704;-61
2022/07/12 00:24:22;;;;;;;2.88;1.70;;;18.60;99.90;;;;;;5095609;28;20224;-61
2022/07/12 00:26:52;;;;;;;1.73;1.40;;;18.60;99.90;;;;;;5095458;28;20675;-61
2022/07/12 00:29:19;;;;;;;1.45;1.35;;;18.70;99.90;;;;;;5095429;28;20798;-61
2022/07/12 00:31:45;;;;;;;2.85;1.60;;;18.70;99.90;;;;;;5095523;28;20234;-61
2022/07/12 00:34:12;;;;;;;1.52;1.40;;;18.70;99.90;;;;;;5095395;28;20281;-61
2022/07/12 00:36:39;;;;;;;1.98;1.60;;;18.60;99.90;;;;;;5095518;28;20205;-61
2022/07/12 00:39:05;;;;;;;2.13;1.45;;;18.40;99.90;;;;;;5095275;28;20208;-63
2022/07/12 00:41:32;;;;;;;2.13;1.42;;;18.20;99.90;;;;;;5095166;28;20273;-61
2022/07/12 00:44:00;;;;;;;1.60;1.50;;;18.00;99.90;;;;;;5095137;28;20247;-61
2022/07/12 00:46:27;;;;;;;1.65;1.48;;;18.00;99.90;;;;;;5094991;28;20200;-61
2022/07/12 00:48:55;;;;;;;1.55;1.45;;;18.00;99.90;;;;;;5095216;28;20215;-61
2022/07/12 00:51:22;;;;;;;1.52;1.40;;;18.00;99.90;;;;;;5095151;28;20668;-61
2022/07/12 00:53:50;;;;;;;1.30;1.20;;;17.90;99.90;;;;;;5094980;28;20315;-61
2022/07/12 00:56:16;;;;;;;2.70;1.50;;;17.80;99.90;;;;;;5094698;28;20208;-61
2022/07/12 00:58:44;;;;;;;1.42;1.30;;;17.70;99.90;;;;;;5095227;28;20211;-61
2022/07/12 01:01:12;;;;;;;1.50;1.40;;;17.60;99.90;;;;;;5094831;28;20228;-61
2022/07/12 01:03:39;;;;;;;1.50;1.40;;;17.60;99.90;;;;;;5094954;28;20232;-61
2022/07/12 01:06:07;;;;;;;1.50;1.40;;;17.60;99.90;;;;;;5094578;28;20241;-61
2022/07/12 01:08:34;;;;;;;1.65;1.20;;;17.70;99.90;;;;;;5094754;28;20237;-61
2022/07/12 01:11:01;;;;;;;1.60;1.50;;;17.90;99.90;;;;;;5094514;28;20208;-61
2022/07/12 01:13:28;;;;;;;1.85;1.40;;;18.00;99.90;;;;;;5094773;28;20228;-61
2022/07/12 01:15:55;;;;;;;3.47;1.50;;;18.10;99.90;;;;;;5094482;28;20227;-61
2022/07/12 01:18:23;;;;;;;1.35;1.25;;;18.10;99.90;;;;;;5094664;28;20253;-61
2022/07/12 01:20:50;;;;;;;1.48;1.38;;;18.10;99.90;;;;;;5094488;28;20581;-61
2022/07/12 01:23:18;;;;;;;2.38;1.50;;;18.20;99.90;;;;;;5093913;28;20282;-61
2022/07/12 01:25:45;;;;;;;1.73;1.58;;;18.20;99.90;;;;;;5093860;28;20211;-61
2022/07/12 01:28:12;;;;;;;1.50;1.40;;;18.10;99.90;;;;;;5094643;28;20281;-61
2022/07/12 01:30:38;;;;;;;1.50;1.30;;;18.10;99.90;;;;;;5094470;28;20208;-61
2022/07/12 01:33:05;;;;;;;2.30;1.30;;;18.10;99.90;;;;;;5094186;28;20277;-61
2022/07/12 01:35:32;;;;;;;2.10;1.42;;;18.10;99.90;;;;;;5094282;28;20265;-60
2022/07/12 01:37:59;;;;;;;2.47;1.83;;;18.10;99.90;;;;;;5094106;28;20638;-60
2022/07/12 01:40:27;;;;;;;3.58;2.20;;;18.10;99.90;;;;;;5094392;28;20615;-62
2022/07/12 01:42:54;;;;;;;2.38;1.90;;;18.10;99.90;;;;;;5094047;28;20220;-60
2022/07/12 01:45:21;;;;;;;2.00;1.60;;;18.10;99.90;;;;;;5094018;28;20212;-60
2022/07/12 01:47:48;;;;;;;2.80;1.48;;;18.10;99.90;;;;;;5094101;28;20203;-60
2022/07/12 01:50:16;;;;;;;3.33;1.60;;;18.00;99.90;;;;;;5093958;28;20238;-61
2022/07/12 01:52:42;;;;;;;2.30;1.63;;;18.00;99.90;;;;;;5093851;28;20249;-61
2022/07/12 01:55:11;;;;;;;2.42;1.70;;;17.90;99.90;;;;;;5093863;28;20281;-60
2022/07/12 01:57:41;;;;;;;1.73;1.38;;;17.80;99.90;;;;;;5093955;28;20204;-61
2022/07/12 02:00:09;;;;;;;2.63;1.60;;;17.70;99.90;;;;;;5093769;28;20257;-61
2022/07/12 02:02:36;;;;;;;2.60;1.63;;;17.70;99.90;;;;;;5093633;28;20604;-61
2022/07/12 02:05:04;;;;;;;3.05;1.40;;;17.60;99.90;;;;;;5093183;28;20289;-61
2022/07/12 02:07:31;;;;;;;1.60;1.40;;;17.50;99.90;;;;;;5093542;28;20200;-61
2022/07/12 02:09:57;;;;;;;1.45;1.35;;;17.40;99.90;;;;;;5093423;28;20672;-61
2022/07/12 02:12:24;;;;;;;1.63;1.52;;;17.40;99.90;;;;;;5093542;28;20619;-61
2022/07/12 02:14:53;;;;;;;2.10;1.50;;;17.30;99.90;;;;;;5093556;28;20236;-61
2022/07/12 02:17:19;;;;;;;1.40;1.30;;;17.20;99.90;;;;;;5093364;28;20196;-61
2022/07/12 02:19:46;;;;;;;2.03;1.77;;;17.10;99.90;;;;;;5093331;28;20212;-60
2022/07/12 02:22:13;;;;;;;2.03;1.60;;;16.90;99.90;;;;;;5093177;28;20281;-61
2022/07/12 02:24:39;;;;;;;1.70;1.60;;;16.80;99.90;;;;;;5093138;28;20228;-61
2022/07/12 02:27:07;;;;;;;4.00;1.58;;;16.70;99.90;;;;;;5093235;28;20204;-61
2022/07/12 02:29:35;;;;;;;4.60;2.33;;;16.70;99.90;;;;;;5093153;28;20200;-61
2022/07/12 02:32:03;;;;;;;2.30;2.00;;;16.70;99.90;;;;;;5093019;28;20249;-61
2022/07/12 02:34:30;;;;;;;2.22;1.70;;;16.60;99.90;;;;;;5092845;28;20235;-61
2022/07/12 02:36:57;;;;;;;2.40;1.50;;;16.60;99.90;;;;;;5092700;28;20629;-61
2022/07/12 02:39:24;;;;;;;2.53;1.73;;;16.50;99.90;;;;;;5093005;28;20204;-61
2022/07/12 02:41:50;;;;;;;2.20;1.60;;;16.40;99.90;;;;;;5092970;28;20267;-61
2022/07/12 02:44:17;;;;;;;1.70;1.60;;;16.40;99.90;;;;;;5092528;28;20635;-61
2022/07/12 02:46:44;;;;;;;2.83;1.60;;;16.30;99.90;;;;;;5092375;28;20672;-61
2022/07/12 02:49:12;;;;;;;1.63;1.52;;;16.00;99.90;;;;;;5092976;28;20257;-62
2022/07/12 02:51:39;;;;;;;7.25;1.65;;;16.00;99.90;;;;;;5092831;28;20565;-62
2022/07/12 02:54:06;;;;;;;2.97;2.00;;;15.90;99.90;;;;;;5092718;28;20666;-62
2022/07/12 02:56:32;;;;;;;3.67;1.90;;;15.90;99.90;;;;;;5092564;28;20277;-62
2022/07/12 02:58:59;;;;;;;2.17;1.83;;;16.00;99.90;;;;;;5092530;28;20204;-60
2022/07/12 03:01:26;;;;;;;2.17;1.70;;;16.00;99.90;;;;;;5092507;28;20265;-62
2022/07/12 03:03:52;;;;;;;1.80;1.67;;;15.90;99.90;;;;;;5092792;28;20704;-60
2022/07/12 03:06:20;;;;;;;3.17;1.73;;;15.90;99.90;;;;;;5092404;28;20668;-60
2022/07/12 03:08:47;;;;;;;1.70;1.60;;;15.90;99.90;;;;;;5092623;28;20259;-60
2022/07/12 03:11:14;;;;;;;2.03;1.60;;;15.90;99.90;;;;;;5092393;28;20695;-60
2022/07/12 03:13:40;;;;;;;2.00;1.60;;;15.90;99.90;;;;;;5092333;28;20250;-60
2022/07/12 03:16:08;;;;;;;3.00;1.60;;;15.80;99.90;;;;;;5092666;28;20261;-61
2022/07/12 03:18:34;;;;;;;2.47;1.80;;;15.80;99.90;;;;;;5092522;28;20223;-61
2022/07/12 03:21:01;;;;;;;1.87;1.60;;;15.80;99.90;;;;;;5092366;28;20204;-60
2022/07/12 03:23:29;;;;;;;3.67;3.27;;;15.70;99.90;;;;;;5092220;28;20255;-62
2022/07/12 03:25:56;;;;;;;3.03;2.13;;;15.70;99.90;;;;;;5092357;28;20295;-61
2022/07/12 03:28:23;;;;;;;2.97;2.00;;;15.70;99.90;;;;;;5092111;28;20254;-60
2022/07/12 03:30:49;;;;;;;2.20;1.73;;;15.70;99.90;;;;;;5092412;28;20200;-61
2022/07/12 03:33:16;;;;;;;2.23;2.03;;;15.70;99.90;;;;;;5091950;28;20224;-60
2022/07/12 03:35:43;;;;;;;1.80;1.60;;;15.60;99.90;;;;;;5091906;28;20630;-61
2022/07/12 03:38:09;;;;;;;2.00;1.80;;;15.60;99.90;;;;;;5092072;28;20208;-60
2022/07/12 03:40:37;;;;;;;2.27;1.70;;;15.60;99.90;;;;;;5092003;28;20254;-60
2022/07/12 03:43:07;;;;;;;4.30;3.27;;;15.60;99.90;;;;;;5091810;28;20254;-61
2022/07/12 03:45:34;;;;;;;7.40;3.30;;;15.50;99.90;;;;;;5091917;28;20203;-61
2022/07/12 03:48:01;;;;;;;4.87;3.50;;;15.50;99.90;;;;;;5091447;28;20213;-62
2022/07/12 03:50:27;;;;;;;6.03;4.00;;;15.50;99.90;;;;;;5092007;28;20215;-62
2022/07/12 03:52:54;;;;;;;3.93;2.93;;;15.50;99.90;;;;;;5091914;28;20389;-62
2022/07/12 03:55:21;;;;;;;2.97;2.67;;;15.40;99.90;;;;;;5091706;28;20206;-62
2022/07/12 03:57:51;;;;;;;3.03;2.63;;;15.50;99.90;;;;;;5091680;28;20671;-62
2022/07/12 04:00:17;;;;;;;2.53;2.30;;;15.40;99.90;;;;;;5092050;28;20284;-62
2022/07/12 04:02:44;;;;;;;2.03;1.80;;;15.40;99.90;;;;;;5091737;28;20430;-61
2022/07/12 04:05:12;;;;;;;1.87;1.77;;;15.40;99.90;;;;;;5091626;28;20633;-63
2022/07/12 04:07:40;;;;;;;1.87;1.63;;;15.40;99.90;;;;;;5091716;28;20261;-62
2022/07/12 04:10:07;;;;;;;1.63;1.53;;;15.30;99.90;;;;;;5091664;28;20204;-61
2022/07/12 04:12:34;;;;;;;2.13;1.53;;;15.30;99.90;;;;;;5091926;28;20200;-61
2022/07/12 04:15:02;;;;;;;1.90;1.70;;;15.40;99.90;;;;;;5091382;28;20641;-61
2022/07/12 04:17:29;;;;;;;2.57;1.90;;;15.40;99.90;;;;;;5091524;28;20718;-62
2022/07/12 04:19:55;;;;;;;2.10;1.60;;;15.50;99.90;;;;;;5091700;28;20211;-62
2022/07/12 04:22:22;;;;;;;3.80;3.03;;;15.60;99.90;;;;;;5091436;28;20319;-62
2022/07/12 04:24:49;;;;;;;16.77;12.90;;;15.70;99.90;;;;;;5091378;28;20231;-61
2022/07/12 04:27:15;;;;;;;70.63;49.60;;;15.90;99.90;;;;;;5091601;28;20200;-61
2022/07/12 04:29:43;;;;;;;45.70;32.60;;;15.90;99.90;;;;;;5091953;28;20261;-62
2022/07/12 04:32:11;;;;;;;23.87;17.70;;;16.00;99.90;;;;;;5091699;28;20216;-61
2022/07/12 04:34:37;;;;;;;13.53;9.00;;;16.00;99.90;;;;;;5091291;28;20232;-62
2022/07/12 04:37:04;;;;;;;7.53;5.10;;;16.10;99.90;;;;;;5091212;28;20212;-62
2022/07/12 04:39:31;;;;;;;4.00;3.30;;;16.20;99.90;;;;;;5091438;28;20668;-61
2022/07/12 04:41:58;;;;;;;3.45;3.00;;;16.20;99.90;;;;;;5091382;28;20205;-62
2022/07/12 04:44:24;;;;;;;3.47;2.70;;;16.30;99.90;;;;;;5091344;28;20796;-61
2022/07/12 04:46:51;;;;;;;5.43;2.70;;;16.40;99.90;;;;;;5091291;28;20254;-60
2022/07/12 04:49:19;;;;;;;2.40;2.20;;;16.40;99.90;;;;;;5091412;28;20204;-61
2022/07/12 04:51:46;;;;;;;2.80;2.28;;;16.30;99.90;;;;;;5091305;28;20621;-61
2022/07/12 04:54:12;;;;;;;3.95;2.25;;;16.20;99.90;;;;;;5091486;28;20719;-62
2022/07/12 04:56:39;;;;;;;4.23;2.30;;;16.20;99.90;;;;;;5091145;28;20212;-61
2022/07/12 04:59:06;;;;;;;3.37;2.10;;;16.30;99.90;;;;;;5092177;28;20208;-62
2022/07/12 05:01:33;;;;;;;3.30;1.80;;;16.40;99.90;;;;;;5094943;28;20281;-61
2022/07/12 05:04:00;;;;;;;2.20;2.00;;;16.60;99.90;;;;;;5094762;28;20319;-61
2022/07/12 05:06:28;;;;;;;3.25;1.83;;;16.90;99.90;;;;;;5094413;28;20299;-62
2022/07/12 05:08:55;;;;;;;1.88;1.50;;;17.20;99.90;;;;;;5094611;28;20212;-62
2022/07/12 05:11:22;;;;;;;1.40;1.30;;;17.60;99.90;;;;;;5094852;28;20230;-62
2022/07/12 05:13:48;;;;;;;1.60;1.50;;;17.90;99.90;;;;;;5094799;28;20216;-62
2022/07/12 05:16:15;;;;;;;2.05;1.40;;;18.10;99.90;;;;;;5094776;28;20212;-63
2022/07/12 05:18:42;;;;;;;2.17;1.48;;;18.40;99.90;;;;;;5094724;28;20200;-62
2022/07/12 05:21:09;;;;;;;2.00;1.50;;;18.50;99.90;;;;;;5095417;28;20208;-62
2022/07/12 05:23:37;;;;;;;2.78;1.27;;;19.20;99.90;;;;;;5095474;28;20261;-62
2022/07/12 05:26:03;;;;;;;1.23;1.13;;;19.60;99.90;;;;;;5095019;28;20253;-62
2022/07/12 05:28:30;;;;;;;2.15;1.30;;;20.20;99.90;;;;;;5094440;28;20584;-61
2022/07/12 05:30:57;;;;;;;1.70;1.60;;;20.60;99.90;;;;;;5094524;28;20207;-62
2022/07/12 05:33:23;;;;;;;1.50;1.25;;;21.20;99.90;;;;;;5094119;28;20224;-62
2022/07/12 05:35:51;;;;;;;1.58;1.05;;;22.20;99.90;;;;;;5094184;28;20207;-62
2022/07/12 05:38:17;;;;;;;3.42;0.85;;;22.90;99.90;;;;;;5094340;28;20580;-62
2022/07/12 05:40:46;;;;;;;1.70;1.60;;;23.20;99.90;;;;;;5093924;28;20702;-61
2022/07/12 05:43:12;;;;;;;1.98;1.10;;;23.90;99.90;;;;;;5093900;28;20235;-61
2022/07/12 05:45:42;;;;;;;2.60;1.10;;;24.50;99.90;;;;;;5093889;28;20204;-63
2022/07/12 05:48:08;;;;;;;1.88;0.80;;;26.00;99.90;;;;;;5093968;28;20672;-62
2022/07/12 05:50:35;;;;;;;1.55;1.00;;;27.80;99.90;;;;;;5094333;28;20212;-61
2022/07/12 05:55:47;;;;;;;3.20;1.20;;;30.20;92.30;;;;;;5093410;28;20606;-61
2022/07/12 05:58:14;;;;;;;5.50;1.15;;;30.20;90.60;;;;;;5093751;28;20211;-60
2022/07/12 06:00:41;;;;;;;1.27;1.08;;;29.90;89.30;;;;;;5093757;28;20551;-61
2022/07/12 06:03:07;;;;;;;1.15;0.73;;;29.60;89.50;;;;;;5093960;28;20605;-61
2022/07/12 06:05:34;;;;;;;1.00;1.00;;;29.70;89.60;;;;;;5093529;28;20227;-61
2022/07/12 06:08:01;;;;;;;1.67;1.20;;;30.60;85.80;;;;;;5093701;28;20471;-61
2022/07/12 06:10:28;;;;;;;1.08;0.98;;;31.50;82.20;;;;;;5093009;28;20291;-61
2022/07/12 06:12:56;;;;;;;1.02;0.93;;;32.70;78.80;;;;;;5093133;28;20664;-61
2022/07/12 06:15:24;;;;;;;1.70;0.90;;;34.10;72.70;;;;;;5093363;28;20212;-61
2022/07/12 06:17:51;;;;;;;1.48;1.00;;;35.10;67.30;;;;;;5093381;28;20207;-61
2022/07/12 06:20:17;;;;;;;3.30;1.02;;;35.90;64.20;;;;;;5093518;28;20212;-61
2022/07/12 06:22:44;;;;;;;1.00;0.85;;;36.80;60.50;;;;;;5093203;28;20296;-61
2022/07/12 06:25:10;;;;;;;0.63;0.63;;;37.90;56.80;;;;;;5092990;28;20212;-61
2022/07/12 06:27:37;;;;;;;0.60;0.60;;;38.80;54.70;;;;;;5093098;28;20204;-61
2022/07/12 06:30:07;;;;;;;1.38;0.68;;;39.60;51.20;;;;;;5093448;28;20200;-61
2022/07/12 06:32:34;;;;;;;0.55;0.52;;;40.30;48.70;;;;;;5093350;28;20265;-61
2022/07/12 06:35:00;;;;;;;0.77;0.50;;;40.90;46.50;;;;;;5092677;28;20239;-61
2022/07/12 06:37:27;;;;;;;1.75;0.40;;;41.20;45.60;;;;;;5092944;28;20203;-61
2022/07/12 06:39:54;;;;;;;0.60;0.50;;;41.50;44.70;;;;;;5092941;28;20204;-61
2022/07/12 06:42:20;;;;;;;0.40;0.40;;;39.90;46.70;;;;;;5092810;28;20269;-61
2022/07/12 06:44:47;;;;;;;0.70;0.20;;;38.90;47.90;;;;;;5092588;28;20228;-61
2022/07/12 06:47:15;;;;;;;1.48;0.40;;;39.00;46.70;;;;;;5093018;28;20553;-61
2022/07/12 06:49:42;;;;;;;4.97;4.57;;;39.10;46.80;;;;;;5092751;28;20208;-61
2022/07/12 06:52:09;;;;;;;1.85;0.30;;;39.70;45.80;;;;;;5092774;28;20215;-61
2022/07/12 06:54:35;;;;;;;0.73;0.30;;;39.90;45.40;;;;;;5092529;28;20306;-61
2022/07/12 06:57:02;;;;;;;0.50;0.40;;;39.00;46.70;;;;;;5092625;28;20581;-61
2022/07/12 06:59:29;;;;;;;0.93;0.40;;;38.70;46.80;;;;;;5092951;28;20281;-61
2022/07/12 07:01:57;;;;;;;1.42;0.50;;;38.80;47.30;;;;;;5092601;28;20277;-61
2022/07/12 07:04:25;;;;;;;1.05;0.57;;;39.00;46.40;;;;;;5092452;28;20318;-61
2022/07/12 07:06:52;;;;;;;0.63;0.43;;;38.60;47.20;;;;;;5092352;28;20261;-62
2022/07/12 07:09:19;;;;;;;0.60;0.60;;;38.50;47.40;;;;;;5092333;28;20204;-61
2022/07/12 07:11:46;;;;;;;0.60;0.50;;;39.00;46.50;;;;;;5092637;28;20291;-61
2022/07/12 07:14:13;;;;;;;1.15;0.60;;;39.60;45.30;;;;;;5092295;28;20224;-61
2022/07/12 07:16:39;;;;;;;0.60;0.60;;;40.10;45.20;;;;;;5092077;28;20207;-61
2022/07/12 07:19:06;;;;;;;3.30;1.70;;;41.20;43.50;;;;;;5092301;28;20207;-61
2022/07/12 07:21:34;;;;;;;2.05;0.40;;;42.40;42.30;;;;;;5092104;28;20290;-62
2022/07/12 07:24:01;;;;;;;1.40;0.40;;;42.90;40.90;;;;;;5092149;28;20239;-62
2022/07/12 07:26:28;;;;;;;1.25;0.65;;;43.50;40.20;;;;;;5091828;28;20736;-61
2022/07/12 07:31:39;;;;;;;0.38;0.30;;;43.00;39.80;;;;;;5092282;28;20586;-61
2022/07/12 07:34:06;;;;;;;0.20;0.20;;;42.30;40.30;;;;;;5092001;28;20215;-61
2022/07/12 07:36:34;;;;;;;0.35;0.30;;;42.00;39.60;;;;;;5092877;28;20536;-61
2022/07/12 07:39:01;;;;;;;2.95;0.60;;;40.50;41.70;;;;;;5092289;28;20288;-61
2022/07/12 07:41:28;;;;;;;0.50;0.35;;;40.30;41.90;;;;;;5092005;28;20569;-61
2022/07/12 07:43:55;;;;;;;1.65;0.50;;;40.20;42.10;;;;;;5091825;28;20227;-61
2022/07/12 07:46:22;;;;;;;2.45;0.60;;;40.00;42.50;;;;;;5091891;28;20210;-61
2022/07/12 07:48:48;;;;;;;0.85;0.60;;;39.50;43.20;;;;;;5091858;28;20207;-61
2022/07/12 07:51:15;;;;;;;3.72;0.75;;;38.10;44.70;;;;;;5091809;28;20211;-61
2022/07/12 07:53:43;;;;;;;0.65;0.50;;;38.70;43.60;;;;;;5091932;28;20246;-61
2022/07/12 07:56:09;;;;;;;0.30;0.30;;;39.20;43.30;;;;;;5091766;28;20268;-61
2022/07/12 07:58:36;;;;;;;1.10;0.55;;;40.50;41.50;;;;;;5092285;28;20253;-61
2022/07/12 08:01:03;;;;;;;0.93;0.40;;;42.00;39.70;;;;;;5091814;28;20218;-61
2022/07/12 08:03:30;;;;;;;1.27;0.30;;;42.60;38.70;;;;;;5091546;28;20235;-61
2022/07/12 08:05:57;;;;;;;0.80;0.20;;;41.80;38.70;;;;;;5091451;28;20686;-61
2022/07/12 08:08:24;;;;;;;0.20;0.20;;;40.70;39.50;;;;;;5091849;28;20235;-61
2022/07/12 08:10:52;;;;;;;0.30;0.13;;;39.80;40.10;;;;;;5091733;28;20298;-61
2022/07/12 08:13:19;;;;;;;0.10;0.10;;;39.90;39.30;;;;;;5091750;28;20223;-61
2022/07/12 08:15:46;;;;;;;0.17;0.17;;;39.50;40.10;;;;;;5091224;28;20261;-61
2022/07/12 08:18:12;;;;;;;0.30;0.20;;;38.20;41.70;;;;;;5091775;28;20207;-61
2022/07/12 08:20:39;;;;;;;0.10;0.10;;;38.40;41.60;;;;;;5091775;28;20200;-61
2022/07/12 08:23:06;;;;;;;0.30;0.30;;;37.80;42.00;;;;;;5091345;28;20630;-61
2022/07/12 08:25:33;;;;;;;0.60;0.30;;;38.20;41.40;;;;;;5091146;28;20226;-61
2022/07/12 08:28:01;;;;;;;0.30;0.30;;;39.10;40.30;;;;;;5091553;28;20684;-61
2022/07/12 08:30:28;;;;;;;0.10;0.10;;;38.60;41.40;;;;;;5091501;28;20238;-61
2022/07/12 08:32:55;;;;;;;1.55;0.10;;;37.70;42.50;;;;;;5091900;28;20220;-61
2022/07/12 08:35:22;;;;;;;0.32;0.32;;;35.90;44.60;;;;;;5095084;28;20205;-61
2022/07/12 08:37:49;;;;;;;0.35;0.35;;;34.70;45.70;;;;;;5095191;28;20215;-61
2022/07/12 08:40:15;;;;;;;0.25;0.20;;;33.50;47.80;;;;;;5095466;28;20296;-60
2022/07/12 08:42:43;;;;;;;0.38;0.30;;;32.40;49.50;;;;;;5095149;28;20257;-60
2022/07/12 08:45:11;;;;;;;0.20;0.20;;;31.50;50.80;;;;;;5094730;28;20232;-60
2022/07/12 08:47:38;;;;;;;0.20;0.20;;;31.70;50.90;;;;;;5094993;28;20212;-60
2022/07/12 08:50:13;;;;;;;0.30;0.30;;;33.00;49.10;;;;;;5095370;28;20225;-60
2022/07/12 08:52:41;;;;;;;3.47;0.70;;;33.40;48.50;;;;;;5095033;28;20212;-60
2022/07/12 08:55:20;;;;;;;1.30;0.20;;;33.30;48.40;;;;;;5094880;28;20228;-60
2022/07/12 08:57:47;;;;;;;1.75;0.25;;;32.80;49.40;;;;;;5095379;28;20410;-60
2022/07/12 09:00:16;;;;;;;1.38;0.30;;;32.30;50.60;;;;;;5095282;28;20205;-60
2022/07/12 09:02:48;;;;;;;1.08;0.40;;;32.10;50.70;;;;;;5094894;28;20225;-60
2022/07/12 09:05:15;;;;;;;0.50;0.25;;;31.60;51.40;;;;;;5094640;28;20231;-60
2022/07/12 09:07:43;;;;;;;0.10;0.10;;;31.20;53.10;;;;;;5094891;28;20204;-60
2022/07/12 09:10:11;;;;;;;0.20;0.17;;;30.40;53.50;;;;;;5094687;28;20342;-60
2022/07/12 09:12:38;;;;;;;1.08;0.25;;;29.70;55.30;;;;;;5094834;28;20264;-60
2022/07/12 09:15:13;;;;;;;0.32;0.32;;;28.70;56.90;;;;;;5094700;28;20204;-62
2022/07/12 09:17:44;;;;;;;0.50;0.32;;;27.90;59.00;;;;;;5094105;28;20428;-63
2022/07/12 09:20:11;;;;;;;0.30;0.20;;;27.10;60.10;;;;;;5073685;28;20292;-66
2022/07/12 09:22:38;;;;;;;0.43;0.35;;;26.70;61.90;;;;;;5089279;28;20644;-69
2022/07/12 09:25:17;;;;;;;1.15;0.47;;;26.70;62.40;;;;;;5090781;28;20251;-66
2022/07/12 09:27:49;;;;;;;0.40;0.20;;;27.00;62.10;;;;;;5073359;28;20228;-68
2022/07/12 09:30:16;;;;;;;0.55;0.40;;;27.20;62.30;;;;;;5073155;28;20232;-67
2022/07/12 09:38:20;;;;;;;2.70;0.20;;;26.90;63.10;;;;;;5072944;28;20197;-65
2022/07/12 09:40:48;;;;;;;1.35;0.30;;;26.90;63.60;;;;;;5072729;28;20622;-64
2022/07/12 09:43:15;;;;;;;0.20;0.20;;;27.10;63.20;;;;;;5073004;28;20259;-65
2022/07/12 09:45:43;;;;;;;0.30;0.30;;;27.30;62.90;;;;;;5071585;28;20229;-64
2022/07/12 09:48:12;;;;;;;0.32;0.20;;;27.70;62.70;;;;;;5072980;28;20213;-65
2022/07/12 09:50:39;;;;;;;0.32;0.20;;;28.20;60.60;;;;;;5072951;28;20287;-63
2022/07/12 09:53:09;;;;;;;0.25;0.10;;;28.50;59.90;;;;;;5072694;28;20248;-68
2022/07/12 09:55:38;;;;;;;0.60;0.30;;;28.70;59.70;;;;;;5072285;28;20246;-65
2022/07/12 09:58:08;;;;;;;0.20;0.20;;;28.80;60.00;;;;;;5072037;28;20209;-69
2022/07/12 10:00:36;;;;;;;0.55;0.47;;;29.20;59.00;;;;;;5072338;28;20212;-65
2022/07/12 10:03:04;;;;;;;0.20;0.20;;;29.40;58.50;;;;;;5088478;28;20408;-64
2022/07/12 10:05:33;;;;;;;0.22;0.20;;;29.00;58.70;;;;;;5092460;28;20593;-64
2022/07/12 10:08:01;;;;;;;2.38;0.40;;;28.60;59.40;;;;;;5092568;28;20200;-65
2022/07/12 10:10:29;;;;;;;0.13;0.13;;;28.30;60.40;;;;;;5091934;28;20248;-64
2022/07/12 10:12:56;;;;;;;1.10;0.20;;;28.10;60.60;;;;;;5092654;28;20238;-63
2022/07/12 10:15:27;;;;;;;0.63;0.20;;;28.00;60.60;;;;;;5092194;28;20211;-66
2022/07/12 10:17:55;;;;;;;0.10;0.10;;;27.80;60.80;;;;;;5092254;28;20200;-65
2022/07/12 10:20:26;;;;;;;0.35;0.20;;;27.60;61.20;;;;;;5092541;28;20240;-72
2022/07/12 10:22:55;;;;;;;1.52;0.60;;;27.60;61.40;;;;;;5092413;28;20608;-63
2022/07/12 10:25:30;;;;;;;0.68;0.50;;;27.70;61.40;;;;;;5092536;28;20458;-63
2022/07/12 10:27:58;;;;;;;0.13;0.10;;;27.70;61.50;;;;;;5093415;28;20203;-63
2022/07/12 10:30:25;;;;;;;0.43;0.35;;;27.60;61.40;;;;;;5093430;28;20257;-63
2022/07/12 10:32:56;;;;;;;1.48;0.30;;;27.30;62.30;;;;;;5092932;28;20204;-63
2022/07/12 10:35:25;;;;;;;1.58;0.30;;;26.90;63.10;;;;;;5092804;28;20208;-63
2022/07/12 10:38:21;;;;;;;0.38;0.30;;;26.60;63.50;;;;;;5094039;28;20463;-61
2022/07/12 10:40:50;;;;;;;0.28;0.28;;;26.60;64.20;;;;;;5094288;28;20751;-61
2022/07/12 10:46:22;;;;;;;0.90;0.30;;;26.70;63.20;;;;;;5094024;28;20203;-61
2022/07/12 10:48:50;;;;;;;1.42;0.40;;;26.80;63.50;;;;;;5093308;28;20204;-61
2022/07/12 10:51:19;;;;;;;1.00;0.30;;;26.80;63.90;;;;;;5092529;28;20575;-61
2022/07/12 10:53:50;;;;;;;1.50;0.40;;;26.70;63.90;;;;;;5092574;28;20580;-61
2022/07/12 10:56:20;;;;;;;0.38;0.30;;;26.70;64.70;;;;;;5092131;28;20276;-60
2022/07/12 10:58:49;;;;;;;1.08;0.30;;;26.80;64.00;;;;;;5092798;28;20233;-60
2022/07/12 11:01:18;;;;;;;0.45;0.30;;;26.80;64.40;;;;;;5092384;28;20220;-60
2022/07/12 11:03:46;;;;;;;1.23;0.50;;;27.00;64.00;;;;;;5092246;28;20220;-60
2022/07/12 11:06:14;;;;;;;0.47;0.17;;;27.20;63.80;;;;;;5092398;28;20779;-60
2022/07/12 11:08:50;;;;;;;0.22;0.22;;;27.30;62.90;;;;;;5092592;28;20208;-60
2022/07/12 11:11:17;;;;;;;1.60;0.30;;;27.40;62.80;;;;;;5092662;28;20208;-60
2022/07/12 11:13:43;;;;;;;0.70;0.40;;;27.30;63.60;;;;;;5092676;28;20228;-60
2022/07/12 11:16:10;;;;;;;0.32;0.20;;;27.20;63.90;;;;;;5092065;28;20200;-61
2022/07/12 11:18:38;;;;;;;0.80;0.30;;;27.10;64.30;;;;;;5092228;28;20767;-61
2022/07/12 11:21:05;;;;;;;0.80;0.20;;;27.10;64.70;;;;;;5092162;28;20206;-61
2022/07/12 11:23:32;;;;;;;1.30;0.30;;;27.00;64.80;;;;;;5092176;28;20227;-61
2022/07/12 11:26:02;;;;;;;0.25;0.20;;;26.90;65.00;;;;;;5091892;28;20228;-61
2022/07/12 11:28:30;;;;;;;0.30;0.20;;;26.70;65.00;;;;;;5091998;28;20729;-61
2022/07/12 11:31:03;;;;;;;1.55;0.20;;;26.50;65.60;;;;;;5091935;28;20203;-60
2022/07/12 11:33:32;;;;;;;0.70;0.30;;;26.40;65.60;;;;;;5092081;28;20232;-60
2022/07/12 11:36:00;;;;;;;0.65;0.30;;;26.30;65.80;;;;;;5091639;28;20210;-61
2022/07/12 11:38:28;;;;;;;0.70;0.25;;;26.30;65.60;;;;;;5092310;28;20203;-60
2022/07/12 11:40:59;;;;;;;1.10;0.40;;;26.30;65.50;;;;;;5092095;28;20234;-62
2022/07/12 11:43:27;;;;;;;0.40;0.30;;;26.50;65.20;;;;;;5092244;28;20236;-62
2022/07/12 11:45:55;;;;;;;0.63;0.20;;;26.80;64.80;;;;;;5091533;28;20700;-62
2022/07/12 11:48:23;;;;;;;0.90;0.28;;;27.00;64.20;;;;;;5091932;28;20204;-62
2022/07/12 11:50:52;;;;;;;0.73;0.40;;;27.10;64.00;;;;;;5092081;28;20729;-61
2022/07/12 11:53:20;;;;;;;0.52;0.20;;;27.10;64.00;;;;;;5091942;28;20257;-60
2022/07/12 11:55:48;;;;;;;0.22;0.20;;;26.80;64.10;;;;;;5091938;28;20250;-60
2022/07/12 11:58:16;;;;;;;2.35;0.35;;;26.80;64.60;;;;;;5091982;28;20212;-60
2022/07/12 12:00:45;;;;;;;0.32;0.20;;;26.90;64.80;;;;;;5092137;28;20208;-60
2022/07/12 12:03:13;;;;;;;0.70;0.28;;;27.10;64.30;;;;;;5091906;28;20765;-60
2022/07/12 12:05:40;;;;;;;0.30;0.20;;;27.30;63.70;;;;;;5091565;28;20224;-61
2022/07/12 12:08:09;;;;;;;2.92;0.65;;;27.50;63.70;;;;;;5092695;28;20584;-61
2022/07/12 12:10:37;;;;;;;1.38;0.20;;;27.60;63.20;;;;;;5095742;28;20660;-62
2022/07/12 12:13:04;;;;;;;0.73;0.30;;;27.50;63.00;;;;;;5095563;28;20319;-61
2022/07/12 12:15:32;;;;;;;1.17;0.55;;;27.50;63.10;;;;;;5095428;28;20213;-60
2022/07/12 12:18:02;;;;;;;0.38;0.28;;;27.60;63.20;;;;;;5095800;28;20207;-60
2022/07/12 12:20:30;;;;;;;1.80;0.25;;;27.60;63.70;;;;;;5096010;28;20218;-61
2022/07/12 12:22:58;;;;;;;0.20;0.20;;;27.60;62.70;;;;;;5095730;28;20231;-60
2022/07/12 12:25:26;;;;;;;0.82;0.50;;;27.60;62.60;;;;;;5095314;28;20725;-62
2022/07/12 12:27:57;;;;;;;1.02;0.38;;;27.50;62.60;;;;;;5095891;28;20211;-61
2022/07/12 12:30:24;;;;;;;1.08;0.28;;;27.50;62.50;;;;;;5095810;28;20227;-62
2022/07/12 12:32:54;;;;;;;0.20;0.20;;;27.50;62.00;;;;;;5095444;28;20212;-61
2022/07/12 12:35:23;;;;;;;0.45;0.20;;;27.50;61.90;;;;;;5095606;28;20227;-61
2022/07/12 12:37:52;;;;;;;0.20;0.20;;;27.50;61.20;;;;;;5095213;28;20208;-62
2022/07/12 12:40:23;;;;;;;0.63;0.28;;;27.60;61.10;;;;;;5095339;28;20216;-61
2022/07/12 12:42:50;;;;;;;0.40;0.30;;;27.70;61.10;;;;;;5095233;28;20220;-61
2022/07/12 12:45:21;;;;;;;1.05;0.47;;;27.90;61.60;;;;;;5095231;28;20224;-60
2022/07/12 12:47:59;;;;;;;0.40;0.40;;;28.00;61.30;;;;;;5095124;28;20200;-60
2022/07/12 12:50:44;;;;;;;2.72;0.40;;;28.00;62.00;;;;;;5095110;28;20208;-60
2022/07/12 12:53:13;;;;;;;1.70;0.43;;;27.90;61.70;;;;;;5094959;28;20224;-60
2022/07/12 12:55:40;;;;;;;0.95;0.70;;;27.80;62.10;;;;;;5094876;28;20201;-60
2022/07/12 12:58:07;;;;;;;0.63;0.45;;;27.80;62.20;;;;;;5095379;28;20250;-61
2022/07/12 13:00:37;;;;;;;0.90;0.30;;;28.00;61.60;;;;;;5094879;28;20211;-61
2022/07/12 13:03:04;;;;;;;1.65;0.20;;;28.20;61.10;;;;;;5095083;28;20256;-61